sensor_id;sensor_type;location;lat;lon;timestamp;temperature;humidity
78767;SHT31;68092;51.982;5.680;2023-04-16T00:01:20;12.7;65.4
78767;SHT31;68092;51.982;5.680;2023-04-16T00:03:49;12.6;65.7
78767;SHT31;68092;51.982;5.680;2023-04-16T00:06:21;12.6;65.3
78767;SHT31;68092;51.982;5.680;2023-04-16T00:08:51;12.6;65.6
78767;SHT31;68092;51.982;5.680;2023-04-16T00:11:21;12.6;66.0
78767;SHT31;68092;51.982;5.680;2023-04-16T00:13:50;12.6;65.9
78767;SHT31;68092;51.982;5.680;2023-04-16T00:16:20;12.6;66.3
78767;SHT31;68092;51.982;5.680;2023-04-16T00:18:50;12.6;66.3
78767;SHT31;68092;51.982;5.680;2023-04-16T00:21:21;12.6;66.3
78767;SHT31;68092;51.982;5.680;2023-04-16T00:23:51;12.5;66.5
78767;SHT31;68092;51.982;5.680;2023-04-16T00:26:21;12.5;66.6
78767;SHT31;68092;51.982;5.680;2023-04-16T00:28:50;12.5;66.6
78767;SHT31;68092;51.982;5.680;2023-04-16T00:31:27;12.6;66.8
78767;SHT31;68092;51.982;5.680;2023-04-16T00:33:57;12.6;66.7
78767;SHT31;68092;51.982;5.680;2023-04-16T00:36:29;12.6;66.9
78767;SHT31;68092;51.982;5.680;2023-04-16T00:38:59;12.6;67.0
78767;SHT31;68092;51.982;5.680;2023-04-16T00:41:30;12.6;66.9
78767;SHT31;68092;51.982;5.680;2023-04-16T00:44:00;12.5;67.0
78767;SHT31;68092;51.982;5.680;2023-04-16T00:46:30;12.5;67.3
78767;SHT31;68092;51.982;5.680;2023-04-16T00:49:02;12.5;67.3
78767;SHT31;68092;51.982;5.680;2023-04-16T00:51:34;12.5;67.1
78767;SHT31;68092;51.982;5.680;2023-04-16T00:54:09;12.6;67.2
78767;SHT31;68092;51.982;5.680;2023-04-16T00:56:38;12.6;67.3
78767;SHT31;68092;51.982;5.680;2023-04-16T00:59:09;12.6;67.3
78767;SHT31;68092;51.982;5.680;2023-04-16T01:01:38;12.6;67.1
78767;SHT31;68092;51.982;5.680;2023-04-16T01:04:08;12.6;67.0
78767;SHT31;68092;51.982;5.680;2023-04-16T01:06:38;12.6;67.0
78767;SHT31;68092;51.982;5.680;2023-04-16T01:09:08;12.6;67.1
78767;SHT31;68092;51.982;5.680;2023-04-16T01:11:38;12.6;67.0
78767;SHT31;68092;51.982;5.680;2023-04-16T01:14:08;12.6;67.2
78767;SHT31;68092;51.982;5.680;2023-04-16T01:16:37;12.6;67.3
78767;SHT31;68092;51.982;5.680;2023-04-16T01:19:08;12.6;67.4
78767;SHT31;68092;51.982;5.680;2023-04-16T01:21:38;12.6;67.2
78767;SHT31;68092;51.982;5.680;2023-04-16T01:24:09;12.6;67.3
78767;SHT31;68092;51.982;5.680;2023-04-16T01:26:38;12.6;67.3
78767;SHT31;68092;51.982;5.680;2023-04-16T01:29:08;12.6;67.4
78767;SHT31;68092;51.982;5.680;2023-04-16T01:31:37;12.6;67.5
78767;SHT31;68092;51.982;5.680;2023-04-16T01:34:07;12.6;67.5
78767;SHT31;68092;51.982;5.680;2023-04-16T01:36:37;12.7;67.6
78767;SHT31;68092;51.982;5.680;2023-04-16T01:39:07;12.7;67.5
78767;SHT31;68092;51.982;5.680;2023-04-16T01:41:39;12.7;67.5
78767;SHT31;68092;51.982;5.680;2023-04-16T01:44:10;12.6;67.2
78767;SHT31;68092;51.982;5.680;2023-04-16T01:46:40;12.6;67.5
78767;SHT31;68092;51.982;5.680;2023-04-16T01:49:10;12.6;67.6
78767;SHT31;68092;51.982;5.680;2023-04-16T01:51:40;12.6;67.9
78767;SHT31;68092;51.982;5.680;2023-04-16T01:54:11;12.6;67.6
78767;SHT31;68092;51.982;5.680;2023-04-16T01:56:43;12.6;67.9
78767;SHT31;68092;51.982;5.680;2023-04-16T01:59:13;12.6;68.0
78767;SHT31;68092;51.982;5.680;2023-04-16T02:01:43;12.6;67.9
78767;SHT31;68092;51.982;5.680;2023-04-16T02:04:13;12.6;67.7
78767;SHT31;68092;51.982;5.680;2023-04-16T02:06:42;12.6;67.8
78767;SHT31;68092;51.982;5.680;2023-04-16T02:09:12;12.6;67.7
78767;SHT31;68092;51.982;5.680;2023-04-16T02:11:42;12.6;67.9
78767;SHT31;68092;51.982;5.680;2023-04-16T02:14:12;12.6;68.1
78767;SHT31;68092;51.982;5.680;2023-04-16T02:16:42;12.6;68.0
78767;SHT31;68092;51.982;5.680;2023-04-16T02:19:11;12.6;68.0
78767;SHT31;68092;51.982;5.680;2023-04-16T02:21:41;12.6;68.0
78767;SHT31;68092;51.982;5.680;2023-04-16T02:24:11;12.6;68.0
78767;SHT31;68092;51.982;5.680;2023-04-16T02:26:40;12.6;68.0
78767;SHT31;68092;51.982;5.680;2023-04-16T02:29:12;12.6;67.9
78767;SHT31;68092;51.982;5.680;2023-04-16T02:31:42;12.6;67.6
78767;SHT31;68092;51.982;5.680;2023-04-16T02:34:14;12.6;67.9
78767;SHT31;68092;51.982;5.680;2023-04-16T02:36:43;12.6;67.7
78767;SHT31;68092;51.982;5.680;2023-04-16T02:39:13;12.6;67.8
78767;SHT31;68092;51.982;5.680;2023-04-16T02:41:45;12.6;67.9
78767;SHT31;68092;51.982;5.680;2023-04-16T02:44:14;12.6;68.0
78767;SHT31;68092;51.982;5.680;2023-04-16T02:46:44;12.6;68.0
78767;SHT31;68092;51.982;5.680;2023-04-16T02:49:13;12.6;67.9
78767;SHT31;68092;51.982;5.680;2023-04-16T02:51:43;12.6;68.1
78767;SHT31;68092;51.982;5.680;2023-04-16T02:54:12;12.6;68.0
78767;SHT31;68092;51.982;5.680;2023-04-16T02:56:42;12.6;68.0
78767;SHT31;68092;51.982;5.680;2023-04-16T02:59:12;12.6;68.1
78767;SHT31;68092;51.982;5.680;2023-04-16T03:01:45;12.6;67.9
78767;SHT31;68092;51.982;5.680;2023-04-16T03:04:15;12.6;68.0
78767;SHT31;68092;51.982;5.680;2023-04-16T03:06:44;12.6;68.0
78767;SHT31;68092;51.982;5.680;2023-04-16T03:09:14;12.6;68.0
78767;SHT31;68092;51.982;5.680;2023-04-16T03:11:44;12.6;68.1
78767;SHT31;68092;51.982;5.680;2023-04-16T03:14:13;12.6;68.2
78767;SHT31;68092;51.982;5.680;2023-04-16T03:16:43;12.6;68.1
78767;SHT31;68092;51.982;5.680;2023-04-16T03:19:12;12.6;68.2
78767;SHT31;68092;51.982;5.680;2023-04-16T03:21:44;12.6;68.2
78767;SHT31;68092;51.982;5.680;2023-04-16T03:24:13;12.6;68.2
78767;SHT31;68092;51.982;5.680;2023-04-16T03:26:43;12.6;68.1
78767;SHT31;68092;51.982;5.680;2023-04-16T03:29:13;12.6;68.2
78767;SHT31;68092;51.982;5.680;2023-04-16T03:31:44;12.6;68.1
78767;SHT31;68092;51.982;5.680;2023-04-16T03:34:14;12.6;68.1
78767;SHT31;68092;51.982;5.680;2023-04-16T03:36:44;12.7;68.0
78767;SHT31;68092;51.982;5.680;2023-04-16T03:39:13;12.7;67.9
78767;SHT31;68092;51.982;5.680;2023-04-16T03:41:43;12.7;67.8
78767;SHT31;68092;51.982;5.680;2023-04-16T03:44:12;12.7;67.9
78767;SHT31;68092;51.982;5.680;2023-04-16T03:46:42;12.7;67.9
78767;SHT31;68092;51.982;5.680;2023-04-16T03:49:12;12.7;67.9
78767;SHT31;68092;51.982;5.680;2023-04-16T03:51:41;12.7;67.9
78767;SHT31;68092;51.982;5.680;2023-04-16T03:54:12;12.7;67.8
78767;SHT31;68092;51.982;5.680;2023-04-16T03:56:42;12.7;67.9
78767;SHT31;68092;51.982;5.680;2023-04-16T03:59:11;12.7;67.9
78767;SHT31;68092;51.982;5.680;2023-04-16T04:01:41;12.7;68.0
78767;SHT31;68092;51.982;5.680;2023-04-16T04:04:14;12.7;68.0
78767;SHT31;68092;51.982;5.680;2023-04-16T04:06:44;12.6;67.9
78767;SHT31;68092;51.982;5.680;2023-04-16T04:09:14;12.6;67.9
78767;SHT31;68092;51.982;5.680;2023-04-16T04:11:43;12.6;67.9
78767;SHT31;68092;51.982;5.680;2023-04-16T04:14:15;12.6;68.0
78767;SHT31;68092;51.982;5.680;2023-04-16T04:16:44;12.6;68.0
78767;SHT31;68092;51.982;5.680;2023-04-16T04:19:14;12.6;68.2
78767;SHT31;68092;51.982;5.680;2023-04-16T04:21:43;12.6;68.2
78767;SHT31;68092;51.982;5.680;2023-04-16T04:24:15;12.6;68.2
78767;SHT31;68092;51.982;5.680;2023-04-16T04:26:45;12.6;68.1
78767;SHT31;68092;51.982;5.680;2023-04-16T04:29:14;12.6;68.3
78767;SHT31;68092;51.982;5.680;2023-04-16T04:31:44;12.6;68.1
78767;SHT31;68092;51.982;5.680;2023-04-16T04:34:13;12.6;68.2
78767;SHT31;68092;51.982;5.680;2023-04-16T04:36:43;12.6;68.2
78767;SHT31;68092;51.982;5.680;2023-04-16T04:39:12;12.6;68.1
78767;SHT31;68092;51.982;5.680;2023-04-16T04:41:42;12.6;68.1
78767;SHT31;68092;51.982;5.680;2023-04-16T04:44:13;12.5;68.2
78767;SHT31;68092;51.982;5.680;2023-04-16T04:46:44;12.5;68.2
78767;SHT31;68092;51.982;5.680;2023-04-16T04:49:14;12.5;68.3
78767;SHT31;68092;51.982;5.680;2023-04-16T04:51:44;12.5;68.2
78767;SHT31;68092;51.982;5.680;2023-04-16T04:54:13;12.5;68.1
78767;SHT31;68092;51.982;5.680;2023-04-16T04:56:43;12.5;68.0
78767;SHT31;68092;51.982;5.680;2023-04-16T04:59:13;12.6;68.1
78767;SHT31;68092;51.982;5.680;2023-04-16T05:01:43;12.6;68.1
78767;SHT31;68092;51.982;5.680;2023-04-16T05:04:12;12.6;68.1
78767;SHT31;68092;51.982;5.680;2023-04-16T05:06:42;12.5;68.3
78767;SHT31;68092;51.982;5.680;2023-04-16T05:09:12;12.5;68.2
78767;SHT31;68092;51.982;5.680;2023-04-16T05:11:42;12.5;68.2
78767;SHT31;68092;51.982;5.680;2023-04-16T05:14:12;12.5;68.4
78767;SHT31;68092;51.982;5.680;2023-04-16T05:16:41;12.5;68.5
78767;SHT31;68092;51.982;5.680;2023-04-16T05:19:11;12.5;68.6
78767;SHT31;68092;51.982;5.680;2023-04-16T05:21:40;12.5;68.7
78767;SHT31;68092;51.982;5.680;2023-04-16T05:24:10;12.5;68.6
78767;SHT31;68092;51.982;5.680;2023-04-16T05:26:40;12.5;68.6
78767;SHT31;68092;51.982;5.680;2023-04-16T05:29:09;12.5;68.5
78767;SHT31;68092;51.982;5.680;2023-04-16T05:31:39;12.5;68.8
78767;SHT31;68092;51.982;5.680;2023-04-16T05:34:09;12.5;68.7
78767;SHT31;68092;51.982;5.680;2023-04-16T05:36:38;12.5;68.6
78767;SHT31;68092;51.982;5.680;2023-04-16T05:39:08;12.6;68.5
78767;SHT31;68092;51.982;5.680;2023-04-16T05:41:38;12.6;68.5
78767;SHT31;68092;51.982;5.680;2023-04-16T05:44:08;12.6;68.6
78767;SHT31;68092;51.982;5.680;2023-04-16T05:46:37;12.6;68.3
78767;SHT31;68092;51.982;5.680;2023-04-16T05:49:07;12.6;68.5
78767;SHT31;68092;51.982;5.680;2023-04-16T05:51:37;12.6;68.4
78767;SHT31;68092;51.982;5.680;2023-04-16T05:54:06;12.6;68.3
78767;SHT31;68092;51.982;5.680;2023-04-16T05:56:36;12.6;68.3
78767;SHT31;68092;51.982;5.680;2023-04-16T05:59:05;12.6;68.1
78767;SHT31;68092;51.982;5.680;2023-04-16T06:01:35;12.6;68.3
78767;SHT31;68092;51.982;5.680;2023-04-16T06:04:05;12.6;68.4
78767;SHT31;68092;51.982;5.680;2023-04-16T06:06:35;12.7;68.4
78767;SHT31;68092;51.982;5.680;2023-04-16T06:09:06;12.7;68.3
78767;SHT31;68092;51.982;5.680;2023-04-16T06:11:36;12.7;68.5
78767;SHT31;68092;51.982;5.680;2023-04-16T06:14:06;12.7;68.4
78767;SHT31;68092;51.982;5.680;2023-04-16T06:16:35;12.7;68.5
78767;SHT31;68092;51.982;5.680;2023-04-16T06:19:05;12.7;68.3
78767;SHT31;68092;51.982;5.680;2023-04-16T06:21:34;12.7;68.6
78767;SHT31;68092;51.982;5.680;2023-04-16T06:24:04;12.7;68.6
78767;SHT31;68092;51.982;5.680;2023-04-16T06:26:34;12.7;68.7
78767;SHT31;68092;51.982;5.680;2023-04-16T06:29:04;12.7;68.6
78767;SHT31;68092;51.982;5.680;2023-04-16T06:31:33;12.7;68.6
78767;SHT31;68092;51.982;5.680;2023-04-16T06:34:03;12.8;68.5
78767;SHT31;68092;51.982;5.680;2023-04-16T06:36:32;12.8;68.4
78767;SHT31;68092;51.982;5.680;2023-04-16T06:39:03;12.8;68.1
78767;SHT31;68092;51.982;5.680;2023-04-16T06:41:33;12.9;68.1
78767;SHT31;68092;51.982;5.680;2023-04-16T06:44:03;12.9;67.6
78767;SHT31;68092;51.982;5.680;2023-04-16T06:46:35;12.9;67.7
78767;SHT31;68092;51.982;5.680;2023-04-16T06:49:04;12.9;67.7
78767;SHT31;68092;51.982;5.680;2023-04-16T06:51:34;12.9;67.6
78767;SHT31;68092;51.982;5.680;2023-04-16T06:54:04;12.9;67.6
78767;SHT31;68092;51.982;5.680;2023-04-16T06:56:33;12.9;67.5
78767;SHT31;68092;51.982;5.680;2023-04-16T06:59:04;12.9;67.8
78767;SHT31;68092;51.982;5.680;2023-04-16T07:01:34;12.9;67.8
78767;SHT31;68092;51.982;5.680;2023-04-16T07:04:04;12.9;67.8
78767;SHT31;68092;51.982;5.680;2023-04-16T07:06:34;12.9;67.8
78767;SHT31;68092;51.982;5.680;2023-04-16T07:09:04;13.0;67.8
78767;SHT31;68092;51.982;5.680;2023-04-16T07:11:34;13.0;67.8
78767;SHT31;68092;51.982;5.680;2023-04-16T07:14:04;13.0;67.5
78767;SHT31;68092;51.982;5.680;2023-04-16T07:16:33;13.0;67.6
78767;SHT31;68092;51.982;5.680;2023-04-16T07:19:05;13.0;67.8
78767;SHT31;68092;51.982;5.680;2023-04-16T07:21:35;13.1;67.6
78767;SHT31;68092;51.982;5.680;2023-04-16T07:24:05;13.1;67.2
78767;SHT31;68092;51.982;5.680;2023-04-16T07:26:35;13.1;67.3
78767;SHT31;68092;51.982;5.680;2023-04-16T07:29:04;13.1;67.3
78767;SHT31;68092;51.982;5.680;2023-04-16T07:31:34;13.1;67.2
78767;SHT31;68092;51.982;5.680;2023-04-16T07:34:03;13.1;67.3
78767;SHT31;68092;51.982;5.680;2023-04-16T07:36:33;13.2;67.4
78767;SHT31;68092;51.982;5.680;2023-04-16T07:39:04;13.2;67.1
78767;SHT31;68092;51.982;5.680;2023-04-16T07:41:35;13.2;67.0
78767;SHT31;68092;51.982;5.680;2023-04-16T07:44:06;13.2;67.0
78767;SHT31;68092;51.982;5.680;2023-04-16T07:46:36;13.3;66.9
78767;SHT31;68092;51.982;5.680;2023-04-16T07:49:05;13.3;66.6
78767;SHT31;68092;51.982;5.680;2023-04-16T07:51:35;13.3;66.7
78767;SHT31;68092;51.982;5.680;2023-04-16T07:54:04;13.3;66.7
78767;SHT31;68092;51.982;5.680;2023-04-16T07:56:34;13.4;66.9
78767;SHT31;68092;51.982;5.680;2023-04-16T07:59:04;13.4;66.5
78767;SHT31;68092;51.982;5.680;2023-04-16T08:01:36;13.4;66.4
78767;SHT31;68092;51.982;5.680;2023-04-16T08:04:06;13.4;66.2
78767;SHT31;68092;51.982;5.680;2023-04-16T08:06:35;13.4;66.4
78767;SHT31;68092;51.982;5.680;2023-04-16T08:09:05;13.5;66.3
78767;SHT31;68092;51.982;5.680;2023-04-16T08:11:34;13.5;66.2
78767;SHT31;68092;51.982;5.680;2023-04-16T08:14:04;13.5;66.4
78767;SHT31;68092;51.982;5.680;2023-04-16T08:16:34;13.5;66.2
78767;SHT31;68092;51.982;5.680;2023-04-16T08:19:07;13.6;66.3
78767;SHT31;68092;51.982;5.680;2023-04-16T08:21:37;13.6;66.1
78767;SHT31;68092;51.982;5.680;2023-04-16T08:24:09;13.6;66.0
78767;SHT31;68092;51.982;5.680;2023-04-16T08:26:38;13.6;66.3
78767;SHT31;68092;51.982;5.680;2023-04-16T08:29:08;13.7;66.0
78767;SHT31;68092;51.982;5.680;2023-04-16T08:31:37;13.7;65.8
78767;SHT31;68092;51.982;5.680;2023-04-16T08:34:07;13.7;65.6
78767;SHT31;68092;51.982;5.680;2023-04-16T08:36:39;13.7;65.6
78767;SHT31;68092;51.982;5.680;2023-04-16T08:39:12;13.7;65.4
78767;SHT31;68092;51.982;5.680;2023-04-16T08:41:44;13.8;65.4
78767;SHT31;68092;51.982;5.680;2023-04-16T08:44:24;13.8;65.5
78767;SHT31;68092;51.982;5.680;2023-04-16T08:46:55;13.8;65.2
78767;SHT31;68092;51.982;5.680;2023-04-16T08:49:26;13.8;65.1
78767;SHT31;68092;51.982;5.680;2023-04-16T08:51:56;13.8;65.0
78767;SHT31;68092;51.982;5.680;2023-04-16T08:54:31;13.8;64.9
78767;SHT31;68092;51.982;5.680;2023-04-16T08:57:05;13.9;65.2
78767;SHT31;68092;51.982;5.680;2023-04-16T08:59:40;13.9;64.8
78767;SHT31;68092;51.982;5.680;2023-04-16T09:02:14;13.9;65.0
78767;SHT31;68092;51.982;5.680;2023-04-16T09:04:46;13.9;64.7
78767;SHT31;68092;51.982;5.680;2023-04-16T09:07:18;13.9;64.8
78767;SHT31;68092;51.982;5.680;2023-04-16T09:09:52;13.9;65.4
78767;SHT31;68092;51.982;5.680;2023-04-16T09:12:24;14.0;65.0
78767;SHT31;68092;51.982;5.680;2023-04-16T09:14:55;14.0;65.0
78767;SHT31;68092;51.982;5.680;2023-04-16T09:17:26;14.0;64.7
78767;SHT31;68092;51.982;5.680;2023-04-16T09:19:58;14.0;64.8
78767;SHT31;68092;51.982;5.680;2023-04-16T09:22:28;14.1;64.5
78767;SHT31;68092;51.982;5.680;2023-04-16T09:24:58;14.1;64.2
78767;SHT31;68092;51.982;5.680;2023-04-16T09:27:29;14.1;64.1
78767;SHT31;68092;51.982;5.680;2023-04-16T09:29:59;14.1;64.3
78767;SHT31;68092;51.982;5.680;2023-04-16T09:32:30;14.2;63.5
78767;SHT31;68092;51.982;5.680;2023-04-16T09:35:00;14.2;64.0
78767;SHT31;68092;51.982;5.680;2023-04-16T09:37:30;14.3;64.2
78767;SHT31;68092;51.982;5.680;2023-04-16T09:40:02;14.3;63.8
78767;SHT31;68092;51.982;5.680;2023-04-16T09:42:36;14.4;63.9
78767;SHT31;68092;51.982;5.680;2023-04-16T09:45:13;14.4;63.7
78767;SHT31;68092;51.982;5.680;2023-04-16T09:47:44;14.5;63.0
78767;SHT31;68092;51.982;5.680;2023-04-16T09:50:17;14.6;63.4
78767;SHT31;68092;51.982;5.680;2023-04-16T09:52:50;14.6;62.6
78767;SHT31;68092;51.982;5.680;2023-04-16T09:55:26;14.7;62.3
78767;SHT31;68092;51.982;5.680;2023-04-16T09:58:00;14.7;62.2
78767;SHT31;68092;51.982;5.680;2023-04-16T10:00:30;14.7;62.1
78767;SHT31;68092;51.982;5.680;2023-04-16T10:03:06;14.7;62.3
78767;SHT31;68092;51.982;5.680;2023-04-16T10:05:36;14.8;62.7
78767;SHT31;68092;51.982;5.680;2023-04-16T10:08:12;14.8;61.9
78767;SHT31;68092;51.982;5.680;2023-04-16T10:10:42;14.8;62.7
78767;SHT31;68092;51.982;5.680;2023-04-16T10:13:13;14.9;63.0
78767;SHT31;68092;51.982;5.680;2023-04-16T10:15:44;14.9;61.7
78767;SHT31;68092;51.982;5.680;2023-04-16T10:18:15;14.9;61.5
78767;SHT31;68092;51.982;5.680;2023-04-16T10:20:46;15.0;62.1
78767;SHT31;68092;51.982;5.680;2023-04-16T10:23:16;15.0;61.2
78767;SHT31;68092;51.982;5.680;2023-04-16T10:25:47;15.0;61.1
78767;SHT31;68092;51.982;5.680;2023-04-16T10:28:17;15.1;61.6
78767;SHT31;68092;51.982;5.680;2023-04-16T10:30:50;15.1;61.5
78767;SHT31;68092;51.982;5.680;2023-04-16T10:33:26;15.2;61.1
78767;SHT31;68092;51.982;5.680;2023-04-16T10:36:08;15.2;60.8
78767;SHT31;68092;51.982;5.680;2023-04-16T10:38:40;15.3;60.2
78767;SHT31;68092;51.982;5.680;2023-04-16T10:41:10;15.4;60.6
78767;SHT31;68092;51.982;5.680;2023-04-16T10:43:42;15.4;60.2
78767;SHT31;68092;51.982;5.680;2023-04-16T10:46:20;15.5;60.6
78767;SHT31;68092;51.982;5.680;2023-04-16T10:48:53;15.6;59.3
78767;SHT31;68092;51.982;5.680;2023-04-16T10:51:29;15.6;60.7
78767;SHT31;68092;51.982;5.680;2023-04-16T10:54:20;15.7;60.3
78767;SHT31;68092;51.982;5.680;2023-04-16T10:56:52;15.8;59.2
78767;SHT31;68092;51.982;5.680;2023-04-16T10:59:23;15.9;58.5
78767;SHT31;68092;51.982;5.680;2023-04-16T11:01:54;16.0;58.2
78767;SHT31;68092;51.982;5.680;2023-04-16T11:04:28;16.0;57.9
78767;SHT31;68092;51.982;5.680;2023-04-16T11:07:04;16.1;58.1
78767;SHT31;68092;51.982;5.680;2023-04-16T11:09:46;16.2;57.7
78767;SHT31;68092;51.982;5.680;2023-04-16T11:12:22;16.2;57.6
78767;SHT31;68092;51.982;5.680;2023-04-16T11:14:58;16.3;57.4
78767;SHT31;68092;51.982;5.680;2023-04-16T11:17:31;16.3;57.6
78767;SHT31;68092;51.982;5.680;2023-04-16T11:20:01;16.4;56.8
78767;SHT31;68092;51.982;5.680;2023-04-16T11:22:35;16.4;56.2
78767;SHT31;68092;51.982;5.680;2023-04-16T11:25:07;16.4;56.8
78767;SHT31;68092;51.982;5.680;2023-04-16T11:27:38;16.5;56.5
78767;SHT31;68092;51.982;5.680;2023-04-16T11:30:13;16.5;56.4
78767;SHT31;68092;51.982;5.680;2023-04-16T11:32:44;16.5;56.4
78767;SHT31;68092;51.982;5.680;2023-04-16T11:35:15;16.6;57.3
78767;SHT31;68092;51.982;5.680;2023-04-16T11:37:46;16.6;56.9
78767;SHT31;68092;51.982;5.680;2023-04-16T11:40:18;16.6;56.4
78767;SHT31;68092;51.982;5.680;2023-04-16T11:42:49;16.7;56.9
78767;SHT31;68092;51.982;5.680;2023-04-16T11:45:19;16.7;57.1
78767;SHT31;68092;51.982;5.680;2023-04-16T11:47:51;16.8;56.4
78767;SHT31;68092;51.982;5.680;2023-04-16T11:50:25;16.8;55.6
78767;SHT31;68092;51.982;5.680;2023-04-16T11:52:56;16.9;55.6
78767;SHT31;68092;51.982;5.680;2023-04-16T11:55:26;16.9;55.9
78767;SHT31;68092;51.982;5.680;2023-04-16T11:57:56;16.9;56.0
78767;SHT31;68092;51.982;5.680;2023-04-16T12:00:35;16.9;55.7
78767;SHT31;68092;51.982;5.680;2023-04-16T12:03:04;16.9;54.8
78767;SHT31;68092;51.982;5.680;2023-04-16T12:05:36;16.9;54.7
78767;SHT31;68092;51.982;5.680;2023-04-16T12:08:08;16.9;54.8
78767;SHT31;68092;51.982;5.680;2023-04-16T12:10:53;16.9;55.0
78767;SHT31;68092;51.982;5.680;2023-04-16T12:13:24;16.9;55.1
78767;SHT31;68092;51.982;5.680;2023-04-16T12:15:55;16.9;54.9
78767;SHT31;68092;51.982;5.680;2023-04-16T12:18:25;16.9;54.7
78767;SHT31;68092;51.982;5.680;2023-04-16T12:20:57;16.9;55.0
78767;SHT31;68092;51.982;5.680;2023-04-16T12:23:31;16.9;55.8
78767;SHT31;68092;51.982;5.680;2023-04-16T12:26:07;16.8;55.2
78767;SHT31;68092;51.982;5.680;2023-04-16T12:28:38;16.8;55.5
78767;SHT31;68092;51.982;5.680;2023-04-16T12:31:08;16.8;55.8
78767;SHT31;68092;51.982;5.680;2023-04-16T12:33:38;16.8;56.0
78767;SHT31;68092;51.982;5.680;2023-04-16T12:36:18;16.8;55.8
78767;SHT31;68092;51.982;5.680;2023-04-16T12:38:48;16.8;55.6
78767;SHT31;68092;51.982;5.680;2023-04-16T12:41:18;16.8;55.8
78767;SHT31;68092;51.982;5.680;2023-04-16T12:43:48;16.8;56.0
78767;SHT31;68092;51.982;5.680;2023-04-16T12:46:18;16.8;56.2
78767;SHT31;68092;51.982;5.680;2023-04-16T12:48:47;16.7;56.5
78767;SHT31;68092;51.982;5.680;2023-04-16T12:51:18;16.7;56.7
78767;SHT31;68092;51.982;5.680;2023-04-16T12:53:47;16.7;56.0
78767;SHT31;68092;51.982;5.680;2023-04-16T12:56:17;16.7;55.9
78767;SHT31;68092;51.982;5.680;2023-04-16T12:58:49;16.8;56.5
78767;SHT31;68092;51.982;5.680;2023-04-16T13:01:20;16.8;54.9
78767;SHT31;68092;51.982;5.680;2023-04-16T13:03:49;16.8;55.6
78767;SHT31;68092;51.982;5.680;2023-04-16T13:06:20;16.7;55.5
78767;SHT31;68092;51.982;5.680;2023-04-16T13:08:49;16.7;55.4
78767;SHT31;68092;51.982;5.680;2023-04-16T13:11:21;16.7;56.0
78767;SHT31;68092;51.982;5.680;2023-04-16T13:13:51;16.7;56.2
78767;SHT31;68092;51.982;5.680;2023-04-16T13:16:21;16.7;56.7
78767;SHT31;68092;51.982;5.680;2023-04-16T13:18:51;16.7;55.8
78767;SHT31;68092;51.982;5.680;2023-04-16T13:21:21;16.7;55.9
78767;SHT31;68092;51.982;5.680;2023-04-16T13:23:51;16.7;56.7
78767;SHT31;68092;51.982;5.680;2023-04-16T13:26:21;16.8;56.5
78767;SHT31;68092;51.982;5.680;2023-04-16T13:28:50;16.8;56.1
78767;SHT31;68092;51.982;5.680;2023-04-16T13:31:21;16.9;56.0
78767;SHT31;68092;51.982;5.680;2023-04-16T13:33:51;16.9;56.6
78767;SHT31;68092;51.982;5.680;2023-04-16T13:36:21;16.9;56.6
78767;SHT31;68092;51.982;5.680;2023-04-16T13:38:50;17.0;56.3
78767;SHT31;68092;51.982;5.680;2023-04-16T13:41:20;17.0;55.0
78767;SHT31;68092;51.982;5.680;2023-04-16T13:43:49;17.0;55.4
78767;SHT31;68092;51.982;5.680;2023-04-16T13:46:20;17.1;55.1
78767;SHT31;68092;51.982;5.680;2023-04-16T13:48:50;17.1;54.6
78767;SHT31;68092;51.982;5.680;2023-04-16T13:51:20;17.1;54.4
78767;SHT31;68092;51.982;5.680;2023-04-16T13:53:49;17.1;55.1
78767;SHT31;68092;51.982;5.680;2023-04-16T13:56:19;17.1;55.5
78767;SHT31;68092;51.982;5.680;2023-04-16T13:58:50;17.1;55.1
78767;SHT31;68092;51.982;5.680;2023-04-16T14:01:19;17.2;54.5
78767;SHT31;68092;51.982;5.680;2023-04-16T14:03:50;17.2;54.7
78767;SHT31;68092;51.982;5.680;2023-04-16T14:06:19;17.3;54.7
78767;SHT31;68092;51.982;5.680;2023-04-16T14:08:49;17.3;55.3
78767;SHT31;68092;51.982;5.680;2023-04-16T14:11:18;17.3;54.8
78767;SHT31;68092;51.982;5.680;2023-04-16T14:13:48;17.4;55.0
78767;SHT31;68092;51.982;5.680;2023-04-16T14:16:18;17.4;54.4
78767;SHT31;68092;51.982;5.680;2023-04-16T14:18:48;17.5;53.8
78767;SHT31;68092;51.982;5.680;2023-04-16T14:21:18;17.5;52.8
78767;SHT31;68092;51.982;5.680;2023-04-16T14:23:48;17.5;53.1
78767;SHT31;68092;51.982;5.680;2023-04-16T14:26:18;17.5;52.8
78767;SHT31;68092;51.982;5.680;2023-04-16T14:28:49;17.5;52.7
78767;SHT31;68092;51.982;5.680;2023-04-16T14:31:19;17.5;53.1
78767;SHT31;68092;51.982;5.680;2023-04-16T14:33:49;17.5;53.6
78767;SHT31;68092;51.982;5.680;2023-04-16T14:36:22;17.5;52.8
78767;SHT31;68092;51.982;5.680;2023-04-16T14:38:52;17.5;53.7
78767;SHT31;68092;51.982;5.680;2023-04-16T14:41:21;17.5;53.6
78767;SHT31;68092;51.982;5.680;2023-04-16T14:43:51;17.5;53.9
78767;SHT31;68092;51.982;5.680;2023-04-16T14:46:21;17.5;53.2
78767;SHT31;68092;51.982;5.680;2023-04-16T14:48:51;17.5;53.3
78767;SHT31;68092;51.982;5.680;2023-04-16T14:51:22;17.5;53.3
78767;SHT31;68092;51.982;5.680;2023-04-16T14:53:52;17.5;52.6
78767;SHT31;68092;51.982;5.680;2023-04-16T14:56:22;17.5;52.7
78767;SHT31;68092;51.982;5.680;2023-04-16T14:58:54;17.5;53.5
78767;SHT31;68092;51.982;5.680;2023-04-16T15:01:28;17.5;53.4
78767;SHT31;68092;51.982;5.680;2023-04-16T15:03:59;17.5;53.2
78767;SHT31;68092;51.982;5.680;2023-04-16T15:06:29;17.5;53.4
78767;SHT31;68092;51.982;5.680;2023-04-16T15:08:59;17.5;52.8
78767;SHT31;68092;51.982;5.680;2023-04-16T15:11:30;17.5;52.5
78767;SHT31;68092;51.982;5.680;2023-04-16T15:13:59;17.5;52.7
78767;SHT31;68092;51.982;5.680;2023-04-16T15:16:29;17.5;52.7
78767;SHT31;68092;51.982;5.680;2023-04-16T15:18:59;17.5;52.9
78767;SHT31;68092;51.982;5.680;2023-04-16T15:21:29;17.5;52.9
78767;SHT31;68092;51.982;5.680;2023-04-16T15:23:59;17.5;53.7
78767;SHT31;68092;51.982;5.680;2023-04-16T15:26:30;17.5;53.3
78767;SHT31;68092;51.982;5.680;2023-04-16T15:29:00;17.5;53.4
78767;SHT31;68092;51.982;5.680;2023-04-16T15:31:29;17.5;53.5
78767;SHT31;68092;51.982;5.680;2023-04-16T15:33:59;17.4;53.0
78767;SHT31;68092;51.982;5.680;2023-04-16T15:36:28;17.4;52.9
78767;SHT31;68092;51.982;5.680;2023-04-16T15:38:59;17.4;53.2
78767;SHT31;68092;51.982;5.680;2023-04-16T15:41:29;17.4;53.4
78767;SHT31;68092;51.982;5.680;2023-04-16T15:44:02;17.4;53.2
78767;SHT31;68092;51.982;5.680;2023-04-16T15:46:32;17.4;53.4
78767;SHT31;68092;51.982;5.680;2023-04-16T15:49:02;17.4;53.5
78767;SHT31;68092;51.982;5.680;2023-04-16T15:51:33;17.4;53.6
78767;SHT31;68092;51.982;5.680;2023-04-16T15:54:04;17.3;54.0
78767;SHT31;68092;51.982;5.680;2023-04-16T15:56:33;17.3;53.6
78767;SHT31;68092;51.982;5.680;2023-04-16T15:59:08;17.3;54.0
78767;SHT31;68092;51.982;5.680;2023-04-16T16:01:38;17.3;53.0
78767;SHT31;68092;51.982;5.680;2023-04-16T16:04:08;17.3;53.2
78767;SHT31;68092;51.982;5.680;2023-04-16T16:06:38;17.2;53.3
78767;SHT31;68092;51.982;5.680;2023-04-16T16:09:09;17.2;54.7
78767;SHT31;68092;51.982;5.680;2023-04-16T16:11:41;17.2;54.9
78767;SHT31;68092;51.982;5.680;2023-04-16T16:14:10;17.2;54.5
78767;SHT31;68092;51.982;5.680;2023-04-16T16:16:40;17.2;54.5
78767;SHT31;68092;51.982;5.680;2023-04-16T16:19:10;17.2;54.4
78767;SHT31;68092;51.982;5.680;2023-04-16T16:21:39;17.1;53.6
78767;SHT31;68092;51.982;5.680;2023-04-16T16:24:11;17.1;53.6